This is the latest recevied weather packets stored in our database for station/object N1LJK-13. If no packets are shown the sender has not sent any weather packets the latest 10 day(s).
| Time | Temp. | Humidity | Pressure | Rain* | Wind** | Luminosity | Snow |
|---|---|---|---|---|---|---|---|
| 1777477617 | 10° C | 96% | 1020 hPa | 0 mm | - | - | - |
| 1777475217 | 9.44° C | 98% | 1020.9 hPa | 0 mm | - | - | - |
| 1777474017 | 8.89° C | 98% | 1020.7 hPa | 0 mm | - | - | - |
| 1777472817 | 7.78° C | 98% | 1021.2 hPa | 0 mm | - | - | - |
| 1777471618 | 7.78° C | 98% | 1021.2 hPa | 0 mm | - | - | - |
| 1777469217 | 7.22° C | 98% | 1021.6 hPa | 0 mm | - | - | - |
| 1777466817 | 6.67° C | 98% | 1021.4 hPa | 0 mm | - | - | - |
| 1777465617 | 6.67° C | 98% | 1021.4 hPa | 0 mm | - | - | - |
| 1777464418 | -17.78° C | 100% | 0 hPa | 0 mm | - | - | - |
| 1777463218 | 6.67° C | 98% | 1021.2 hPa | 0 mm | - | - | - |
| 1777462017 | 6.67° C | 98% | 1020.7 hPa | 0 mm | - | - | - |
| 1777460817 | 6.67° C | 98% | 1020.6 hPa | 0 mm | - | - | - |
| 1777459617 | 6.11° C | 98% | 1020.4 hPa | 0 mm | - | - | - |
| 1777458417 | 6.11° C | 98% | 1020.4 hPa | 0 mm | - | - | - |
| 1777456017 | 6.11° C | 98% | 1020.6 hPa | 0 mm | - | - | - |
| 1777454823 | 6.11° C | 98% | 1020.4 hPa | 0 mm | - | - | - |
| 1777453618 | 6.11° C | 98% | 1020.9 hPa | 0 mm | - | - | - |
| 1777452417 | 6.67° C | 98% | 1021.2 hPa | 0 mm | - | - | - |
| 1777451217 | 6.67° C | 98% | 1021.4 hPa | 0 mm | - | - | - |
| 1777450018 | 7.22° C | 98% | 1021.7 hPa | 0 mm | - | - | - |
| 1777447617 | 7.22° C | 98% | 1021.6 hPa | 0 mm | - | - | - |
| 1777446417 | 7.22° C | 98% | 1021.2 hPa | 0 mm | - | - | - |
| 1777445217 | 7.22° C | 98% | 1021.2 hPa | 0 mm | - | - | - |
| 1777444017 | 7.22° C | 98% | 1021.2 hPa | 0 mm | - | - | - |
| 1777442817 | 7.78° C | 98% | 1021.2 hPa | 0 mm | - | - | - |
* Rain latest hour (hover to see other rain measurements)
** Current wind speed in m/s (hover to see current wind gust speed)